createdAt,value
2023-02-27T00:02:24.194Z,45.03
2023-02-27T00:04:51.130Z,45.37
2023-02-27T00:07:17.843Z,46.21
2023-02-27T00:09:44.472Z,46.30
2023-02-27T00:12:12.302Z,46.75
2023-02-27T00:14:38.967Z,47.70
2023-02-27T00:17:05.578Z,47.70
2023-02-27T00:19:32.223Z,47.93
2023-02-27T00:21:58.850Z,48.76
2023-02-27T00:24:25.638Z,48.14
2023-02-27T00:26:52.208Z,48.39
2023-02-27T00:29:19.960Z,48.49
2023-02-27T00:31:51.629Z,49.13
2023-02-27T00:34:18.466Z,49.07
2023-02-27T00:36:45.130Z,49.66
2023-02-27T00:39:20.328Z,49.28
2023-02-27T00:41:47.524Z,49.14
2023-02-27T00:44:14.152Z,48.91
2023-02-27T00:46:40.844Z,49.27
2023-02-27T00:49:07.493Z,48.89
2023-02-27T00:51:34.210Z,49.06
2023-02-27T00:54:03.820Z,48.96
2023-02-27T00:56:30.478Z,49.08
2023-02-27T00:58:57.181Z,49.15
2023-02-27T01:01:23.911Z,49.34
2023-02-27T01:03:50.588Z,49.53
2023-02-27T01:06:17.181Z,49.35
2023-02-27T01:08:43.901Z,48.94
2023-02-27T01:11:10.588Z,48.83
2023-02-27T01:13:37.548Z,48.84
2023-02-27T01:16:04.452Z,48.97
2023-02-27T01:18:31.454Z,48.87
2023-02-27T01:20:58.094Z,48.91
2023-02-27T01:23:24.732Z,49.72
2023-02-27T01:25:51.311Z,49.62
2023-02-27T01:28:17.956Z,50.10
2023-02-27T01:30:44.833Z,49.87
2023-02-27T01:33:14.365Z,49.76
2023-02-27T01:35:41.033Z,48.97
2023-02-27T01:38:07.677Z,48.88
2023-02-27T01:40:39.708Z,48.87
2023-02-27T01:43:07.612Z,48.92
2023-02-27T01:45:39.146Z,48.95
2023-02-27T01:48:05.751Z,48.16
2023-02-27T01:50:35.783Z,48.38
2023-02-27T01:53:05.319Z,48.16
2023-02-27T01:55:35.180Z,47.86
2023-02-27T01:58:01.953Z,47.63
2023-02-27T02:00:29.565Z,47.86
2023-02-27T02:03:18.652Z,47.82
2023-02-27T02:05:47.147Z,47.68
2023-02-27T02:08:18.748Z,47.73
2023-02-27T02:10:47.752Z,47.57
2023-02-27T02:13:16.200Z,47.32
2023-02-27T02:15:53.732Z,47.44
2023-02-27T02:18:32.176Z,47.18
2023-02-27T02:21:28.423Z,46.92
2023-02-27T02:24:13.764Z,46.77
2023-02-27T02:27:11.977Z,47.14
2023-02-27T02:29:52.839Z,47.34
2023-02-27T02:32:53.828Z,47.14
2023-02-27T02:35:42.211Z,46.78
2023-02-27T02:38:50.256Z,47.31
2023-02-27T02:41:49.276Z,46.52
2023-02-27T02:44:19.258Z,46.88
2023-02-27T02:47:05.259Z,46.71
2023-02-27T02:49:56.189Z,46.73
2023-02-27T02:52:39.068Z,46.66
2023-02-27T02:55:24.488Z,45.65
2023-02-27T02:57:54.457Z,46.42
2023-02-27T03:00:35.540Z,47.01
2023-02-27T03:03:14.313Z,47.15
2023-02-27T03:06:01.405Z,46.86
2023-02-27T03:08:37.327Z,47.73
2023-02-27T03:11:05.587Z,47.62
2023-02-27T03:13:40.182Z,47.72
2023-02-27T03:16:13.569Z,48.44
2023-02-27T03:18:54.152Z,48.85
2023-02-27T03:21:29.933Z,49.41
2023-02-27T03:24:02.522Z,49.21
2023-02-27T03:26:35.044Z,49.09
2023-02-27T03:29:06.516Z,48.47
2023-02-27T03:31:40.776Z,48.17
2023-02-27T03:34:23.564Z,48.09
2023-02-27T03:36:56.354Z,48.01
2023-02-27T03:39:47.008Z,47.40
2023-02-27T03:42:34.643Z,47.78
2023-02-27T03:45:31.363Z,47.83
2023-02-27T03:47:58.654Z,47.71
2023-02-27T03:50:25.473Z,48.06
2023-02-27T03:52:52.880Z,47.87
2023-02-27T03:55:25.643Z,48.04
2023-02-27T03:57:53.746Z,48.17
2023-02-27T04:00:23.931Z,48.87
2023-02-27T04:02:54.271Z,48.55
2023-02-27T04:05:23.918Z,48.47
2023-02-27T04:08:02.990Z,48.15
2023-02-27T04:10:44.127Z,48.20
2023-02-27T04:13:35.563Z,48.39
2023-02-27T04:16:17.405Z,48.38
2023-02-27T04:18:56.983Z,47.48
2023-02-27T04:21:48.873Z,47.23
2023-02-27T04:24:38.107Z,46.74
2023-02-27T04:27:38.280Z,46.77
2023-02-27T04:30:19.915Z,46.28
2023-02-27T04:32:55.627Z,46.43
2023-02-27T04:35:29.431Z,46.60
2023-02-27T04:38:03.369Z,46.43
2023-02-27T04:40:39.521Z,46.10
2023-02-27T04:43:10.407Z,46.44
2023-02-27T04:45:41.375Z,46.98
2023-02-27T04:48:19.649Z,46.53
2023-02-27T04:50:53.802Z,46.81
2023-02-27T04:53:25.774Z,46.58
2023-02-27T04:55:57.657Z,46.89
2023-02-27T04:58:42.364Z,47.22
2023-02-27T05:01:15.101Z,47.10
2023-02-27T05:03:47.263Z,47.22
2023-02-27T05:06:15.064Z,47.08
2023-02-27T05:08:49.625Z,47.34
2023-02-27T05:11:35.746Z,47.40
2023-02-27T05:14:12.518Z,47.21
2023-02-27T05:16:45.901Z,47.32
2023-02-27T05:19:13.092Z,46.96
2023-02-27T05:22:09.636Z,46.98
2023-02-27T05:24:49.930Z,46.88
2023-02-27T05:27:22.568Z,46.57
2023-02-27T05:29:54.720Z,46.84
2023-02-27T05:32:46.589Z,46.27
2023-02-27T05:35:34.179Z,46.44
2023-02-27T05:38:36.692Z,46.06
2023-02-27T05:41:21.858Z,46.41
2023-02-27T05:44:03.591Z,46.02
2023-02-27T05:46:35.622Z,45.80
2023-02-27T05:49:11.869Z,46.13
2023-02-27T05:51:41.564Z,45.95
2023-02-27T05:54:23.224Z,46.06
2023-02-27T05:56:53.576Z,45.93
2023-02-27T05:59:59.557Z,45.72
2023-02-27T06:02:26.340Z,45.71
2023-02-27T06:04:54.842Z,45.69
2023-02-27T06:07:22.856Z,45.90
2023-02-27T06:09:50.576Z,45.69
2023-02-27T06:12:17.374Z,46.06
2023-02-27T06:14:44.044Z,46.26
2023-02-27T06:17:10.784Z,45.38
2023-02-27T06:19:37.440Z,45.59
2023-02-27T06:22:04.076Z,45.84
2023-02-27T06:24:30.746Z,45.84
2023-02-27T06:26:57.373Z,46.20
2023-02-27T06:29:23.994Z,44.78
2023-02-27T06:31:50.642Z,45.28
2023-02-27T06:34:17.543Z,45.16
2023-02-27T06:36:44.265Z,44.88
2023-02-27T06:39:10.912Z,45.30
2023-02-27T06:41:37.600Z,45.64
2023-02-27T06:44:04.211Z,45.93
2023-02-27T06:46:31.237Z,45.97
2023-02-27T06:48:58.084Z,45.22
2023-02-27T06:51:24.758Z,44.75
2023-02-27T06:53:51.424Z,44.80
2023-02-27T06:56:18.240Z,44.67
2023-02-27T06:58:44.857Z,44.59
2023-02-27T07:01:13.442Z,44.82
2023-02-27T07:03:40.160Z,45.00
2023-02-27T07:06:06.917Z,44.98
2023-02-27T07:08:33.583Z,44.71
2023-02-27T07:11:00.243Z,44.47
2023-02-27T07:13:26.809Z,44.43
2023-02-27T07:15:54.229Z,45.03
2023-02-27T07:18:21.166Z,45.24
2023-02-27T07:20:51.334Z,44.87
2023-02-27T07:23:18.869Z,45.34
2023-02-27T07:25:47.589Z,44.32
2023-02-27T07:28:15.062Z,44.14
2023-02-27T07:30:41.725Z,44.39
2023-02-27T07:33:08.650Z,44.77
2023-02-27T07:35:35.271Z,45.12
2023-02-27T07:38:02.094Z,44.88
2023-02-27T07:40:28.805Z,45.27
2023-02-27T07:42:55.533Z,45.34
2023-02-27T07:45:23.148Z,45.23
2023-02-27T07:47:49.751Z,45.66
2023-02-27T07:50:16.776Z,45.70
2023-02-27T07:52:44.400Z,45.94
2023-02-27T07:55:12.743Z,45.86
2023-02-27T07:57:39.725Z,46.04
2023-02-27T08:00:09.536Z,46.05
2023-02-27T08:02:39.782Z,46.00
2023-02-27T08:05:07.434Z,45.86
2023-02-27T08:07:34.121Z,45.13
2023-02-27T08:10:00.699Z,45.19
2023-02-27T08:12:27.274Z,45.36
2023-02-27T08:14:53.943Z,45.03
2023-02-27T08:17:20.602Z,44.99
2023-02-27T08:19:47.268Z,44.21
2023-02-27T08:22:13.854Z,44.07
2023-02-27T08:24:40.628Z,44.15
2023-02-27T08:27:07.868Z,43.73
2023-02-27T08:29:34.573Z,43.36
2023-02-27T08:32:02.232Z,43.93
2023-02-27T08:34:30.274Z,43.63
2023-02-27T08:36:56.960Z,43.65
2023-02-27T08:39:24.217Z,43.97
2023-02-27T08:41:52.858Z,43.92
2023-02-27T08:44:20.782Z,43.61
2023-02-27T08:46:47.507Z,43.76
2023-02-27T08:49:14.623Z,43.16
2023-02-27T08:51:41.317Z,42.64
2023-02-27T08:54:07.959Z,42.92
2023-02-27T08:56:35.011Z,42.79
2023-02-27T08:59:02.269Z,42.61
2023-02-27T09:01:34.302Z,43.13
2023-02-27T09:04:06.318Z,42.87
2023-02-27T09:06:35.781Z,42.99
2023-02-27T09:09:03.893Z,42.85
2023-02-27T09:11:31.083Z,41.95
2023-02-27T09:13:58.970Z,42.24
2023-02-27T09:16:25.953Z,42.41
2023-02-27T09:18:52.908Z,42.18
2023-02-27T09:21:20.549Z,42.37
2023-02-27T09:23:47.152Z,42.02
2023-02-27T09:26:13.887Z,42.34
2023-02-27T09:28:40.499Z,41.78
2023-02-27T09:31:08.024Z,41.55
2023-02-27T09:33:36.045Z,42.01
2023-02-27T09:36:05.741Z,42.04
2023-02-27T09:38:34.640Z,41.32
2023-02-27T09:41:02.830Z,41.89
2023-02-27T09:43:49.643Z,40.58
2023-02-27T09:46:21.726Z,40.73
2023-02-27T09:49:01.317Z,40.87
2023-02-27T09:51:29.068Z,41.28
2023-02-27T09:53:59.952Z,41.96
2023-02-27T09:56:31.061Z,42.13
2023-02-27T09:59:16.583Z,41.16
2023-02-27T10:02:06.086Z,40.60
2023-02-27T10:05:07.828Z,40.16
2023-02-27T10:07:52.651Z,40.52
2023-02-27T10:10:34.619Z,40.56
2023-02-27T10:13:24.047Z,40.25
2023-02-27T10:15:53.190Z,40.06
2023-02-27T10:18:28.990Z,40.12
2023-02-27T10:21:02.766Z,40.32
2023-02-27T10:23:46.830Z,39.69
2023-02-27T10:26:24.917Z,40.04
2023-02-27T10:28:51.474Z,39.64
2023-02-27T10:31:26.145Z,39.26
2023-02-27T10:33:55.513Z,39.59
2023-02-27T10:36:33.605Z,37.76
2023-02-27T10:39:10.744Z,38.10
2023-02-27T10:41:40.009Z,35.61
2023-02-27T10:44:06.969Z,35.62
2023-02-27T10:46:38.244Z,35.61
2023-02-27T10:49:20.031Z,35.41
2023-02-27T10:52:04.156Z,34.57
2023-02-27T10:54:30.697Z,35.60
2023-02-27T10:57:01.295Z,34.69
2023-02-27T10:59:38.341Z,34.27
2023-02-27T11:02:17.198Z,35.04
2023-02-27T11:04:56.303Z,35.24
2023-02-27T11:07:32.701Z,35.01
2023-02-27T11:10:21.849Z,34.63
2023-02-27T11:13:05.302Z,34.95
2023-02-27T11:15:38.258Z,35.32
2023-02-27T11:18:21.648Z,34.99
2023-02-27T11:20:50.884Z,35.50
2023-02-27T11:23:21.758Z,35.68
2023-02-27T11:25:48.936Z,35.41
2023-02-27T11:28:28.995Z,35.28
2023-02-27T11:31:06.091Z,35.33
2023-02-27T11:33:39.918Z,35.30
2023-02-27T11:36:07.212Z,35.49
2023-02-27T11:38:34.886Z,35.76
2023-02-27T11:41:07.554Z,35.72
2023-02-27T11:43:47.490Z,35.97
2023-02-27T11:46:46.586Z,35.78
2023-02-27T11:49:39.961Z,35.97
2023-02-27T11:52:06.610Z,36.18
2023-02-27T11:54:43.122Z,35.93
2023-02-27T11:57:32.501Z,35.84
2023-02-27T12:00:26.460Z,35.60
2023-02-27T12:03:06.808Z,35.29
2023-02-27T12:05:40.192Z,35.00
2023-02-27T12:08:15.820Z,35.21
2023-02-27T12:10:52.085Z,35.16
2023-02-27T12:13:30.215Z,35.31
2023-02-27T12:16:16.781Z,35.05
2023-02-27T12:18:54.258Z,35.84
2023-02-27T12:21:24.408Z,35.73
2023-02-27T12:23:57.586Z,35.62
2023-02-27T12:26:27.451Z,35.21
2023-02-27T12:29:09.339Z,35.38
2023-02-27T12:31:36.059Z,35.03
2023-02-27T12:34:13.021Z,35.08
2023-02-27T12:36:39.755Z,34.53
2023-02-27T12:39:23.880Z,34.53
2023-02-27T12:42:09.672Z,34.88
2023-02-27T12:44:41.937Z,35.08
2023-02-27T12:47:44.546Z,34.74
2023-02-27T12:50:18.542Z,35.09
2023-02-27T12:52:45.070Z,34.26
2023-02-27T12:55:23.604Z,34.57
2023-02-27T12:58:15.263Z,34.57
2023-02-27T13:01:00.906Z,34.94
2023-02-27T13:03:35.181Z,34.04
2023-02-27T13:06:20.971Z,34.46
2023-02-27T13:09:29.254Z,34.89
2023-02-27T13:12:05.634Z,34.06
2023-02-27T13:14:44.058Z,34.07
2023-02-27T13:17:27.016Z,34.63
2023-02-27T13:20:16.535Z,34.17
2023-02-27T13:23:11.267Z,33.83
2023-02-27T13:25:43.172Z,34.22
2023-02-27T13:28:16.742Z,34.08
2023-02-27T13:30:49.090Z,34.27
2023-02-27T13:33:22.500Z,34.76
2023-02-27T13:35:52.892Z,34.89
2023-02-27T13:38:46.005Z,34.93
2023-02-27T13:41:25.070Z,35.06
2023-02-27T13:43:53.349Z,34.93
2023-02-27T13:46:27.115Z,35.30
2023-02-27T13:48:55.435Z,35.46
2023-02-27T13:51:43.265Z,35.60
2023-02-27T13:54:18.606Z,36.00
2023-02-27T13:56:54.373Z,35.85
2023-02-27T13:59:30.371Z,35.64
2023-02-27T14:02:01.876Z,35.99
2023-02-27T14:04:34.462Z,35.97
2023-02-27T14:07:18.717Z,35.97
2023-02-27T14:09:47.657Z,36.09
2023-02-27T14:12:45.352Z,36.45
2023-02-27T14:15:18.428Z,36.58
2023-02-27T14:17:49.516Z,36.42
2023-02-27T14:20:27.576Z,36.02
2023-02-27T14:23:21.310Z,36.14
2023-02-27T14:25:53.273Z,35.88
2023-02-27T14:28:35.148Z,36.25
2023-02-27T14:31:08.121Z,36.44
2023-02-27T14:33:41.062Z,36.58
2023-02-27T14:36:29.599Z,36.52
2023-02-27T14:38:58.349Z,36.58
2023-02-27T14:41:36.124Z,36.61
2023-02-27T14:44:03.098Z,36.56
2023-02-27T14:46:34.709Z,36.57
2023-02-27T14:49:16.206Z,36.69
2023-02-27T14:51:43.673Z,36.76
2023-02-27T14:54:16.714Z,36.61
2023-02-27T14:56:57.063Z,36.66
2023-02-27T14:59:29.835Z,36.80
2023-02-27T15:02:02.008Z,36.92
2023-02-27T15:04:31.220Z,36.99
2023-02-27T15:06:59.917Z,36.74
2023-02-27T15:09:42.946Z,37.02
2023-02-27T15:12:16.679Z,37.34
2023-02-27T15:14:49.735Z,37.48
2023-02-27T15:17:21.914Z,37.43
2023-02-27T15:19:51.721Z,37.66
2023-02-27T15:22:39.692Z,38.03
2023-02-27T15:25:08.168Z,38.34
2023-02-27T15:27:37.674Z,38.25
2023-02-27T15:30:05.144Z,37.56
2023-02-27T15:32:43.301Z,37.70
2023-02-27T15:35:20.405Z,37.78
2023-02-27T15:37:54.039Z,37.82
2023-02-27T15:40:25.057Z,37.86
2023-02-27T15:42:52.971Z,37.89
2023-02-27T15:45:24.663Z,37.90
2023-02-27T15:47:51.547Z,38.10
2023-02-27T15:50:18.925Z,38.10
2023-02-27T15:52:55.312Z,38.09
2023-02-27T15:55:28.308Z,38.07
2023-02-27T15:58:02.877Z,37.87
2023-02-27T16:00:31.837Z,38.32
2023-02-27T16:02:59.672Z,38.42
2023-02-27T16:05:41.767Z,38.17
2023-02-27T16:08:17.382Z,38.03
2023-02-27T16:10:46.048Z,38.03
2023-02-27T16:13:33.091Z,37.88
2023-02-27T16:16:02.376Z,38.03
2023-02-27T16:18:36.188Z,38.00
2023-02-27T16:21:11.317Z,38.15
2023-02-27T16:23:38.029Z,38.23
2023-02-27T16:26:21.764Z,38.23
2023-02-27T16:29:05.510Z,38.48
2023-02-27T16:31:37.757Z,38.42
2023-02-27T16:34:13.585Z,38.77
2023-02-27T16:36:42.049Z,38.87
2023-02-27T16:39:14.714Z,39.34
2023-02-27T16:41:41.334Z,39.22
2023-02-27T16:44:07.980Z,39.42
2023-02-27T16:46:34.836Z,39.27
2023-02-27T16:49:14.215Z,39.12
2023-02-27T16:51:46.539Z,39.45
2023-02-27T16:54:14.068Z,39.17
2023-02-27T16:56:41.305Z,39.49
2023-02-27T16:59:27.759Z,39.83
2023-02-27T17:01:56.625Z,39.65
2023-02-27T17:04:27.716Z,39.76
2023-02-27T17:06:56.468Z,39.80
2023-02-27T17:09:23.344Z,39.91
2023-02-27T17:11:50.262Z,39.95
2023-02-27T17:14:17.255Z,39.99
2023-02-27T17:16:44.001Z,40.04
2023-02-27T17:19:10.654Z,40.16
2023-02-27T17:21:37.349Z,40.11
2023-02-27T17:24:04.344Z,40.25
2023-02-27T17:26:31.225Z,40.33
2023-02-27T17:28:58.613Z,40.26
2023-02-27T17:31:26.076Z,40.46
2023-02-27T17:33:53.785Z,40.41
2023-02-27T17:36:22.431Z,40.37
2023-02-27T17:38:54.775Z,40.67
2023-02-27T17:41:21.528Z,40.66
2023-02-27T17:43:53.662Z,40.78
2023-02-27T17:46:20.243Z,41.25
2023-02-27T17:48:46.874Z,41.42
2023-02-27T17:51:15.238Z,41.89
2023-02-27T17:53:42.440Z,42.33
2023-02-27T17:56:10.430Z,42.36
2023-02-27T17:58:37.083Z,42.66
2023-02-27T18:01:17.274Z,43.07
2023-02-27T18:03:46.866Z,43.12
2023-02-27T18:06:13.628Z,43.22
2023-02-27T18:08:41.027Z,43.59
2023-02-27T18:11:16.880Z,43.74
2023-02-27T18:13:43.577Z,44.10
2023-02-27T18:16:12.336Z,43.89
2023-02-27T18:18:40.673Z,44.03
2023-02-27T18:21:13.925Z,44.15
2023-02-27T18:23:41.047Z,44.51
2023-02-27T18:26:12.504Z,44.33
2023-02-27T18:28:43.984Z,44.16
2023-02-27T18:31:29.604Z,44.51
2023-02-27T18:33:56.833Z,44.74
2023-02-27T18:36:23.620Z,44.70
2023-02-27T18:38:51.074Z,44.77
2023-02-27T18:41:17.765Z,44.79
2023-02-27T18:43:44.623Z,44.99
2023-02-27T18:46:12.891Z,44.78
2023-02-27T18:48:40.629Z,44.72
2023-02-27T18:51:12.286Z,44.69
2023-02-27T18:53:41.308Z,44.63
2023-02-27T18:56:09.324Z,44.88
2023-02-27T18:58:36.629Z,44.77
2023-02-27T19:01:04.802Z,44.72
2023-02-27T19:03:32.107Z,44.78
2023-02-27T19:05:59.359Z,44.71
2023-02-27T19:08:29.200Z,44.98
2023-02-27T19:10:59.316Z,45.15
2023-02-27T19:13:26.576Z,45.14
2023-02-27T19:15:53.933Z,45.17
2023-02-27T19:18:20.680Z,45.42
2023-02-27T19:20:47.660Z,45.42
2023-02-27T19:23:14.233Z,45.40
2023-02-27T19:25:42.119Z,45.20
2023-02-27T19:28:11.133Z,44.83
2023-02-27T19:30:39.874Z,44.70
2023-02-27T19:33:06.717Z,44.83
2023-02-27T19:35:33.604Z,44.84
2023-02-27T19:38:00.260Z,44.55
2023-02-27T19:40:28.166Z,44.54
2023-02-27T19:42:55.066Z,44.15
2023-02-27T19:45:22.213Z,44.41
2023-02-27T19:47:48.954Z,44.43
2023-02-27T19:50:16.418Z,44.19
2023-02-27T19:52:43.065Z,44.42
2023-02-27T19:55:10.281Z,44.53
2023-02-27T19:57:37.392Z,44.58
2023-02-27T20:00:07.895Z,44.64
2023-02-27T20:02:41.796Z,44.62
2023-02-27T20:05:08.993Z,44.44
2023-02-27T20:07:35.712Z,44.62
2023-02-27T20:10:02.342Z,44.69
2023-02-27T20:12:30.222Z,44.66
2023-02-27T20:14:57.024Z,44.72
2023-02-27T20:17:23.661Z,44.85
2023-02-27T20:19:50.394Z,44.96
2023-02-27T20:22:17.101Z,44.97
2023-02-27T20:24:44.870Z,45.10
2023-02-27T20:27:12.151Z,45.43
2023-02-27T20:29:40.509Z,45.31
2023-02-27T20:32:08.989Z,45.14
2023-02-27T20:34:35.976Z,45.29
2023-02-27T20:37:03.184Z,45.54
2023-02-27T20:39:30.486Z,45.17
2023-02-27T20:41:57.272Z,45.24
2023-02-27T20:44:24.752Z,45.63
2023-02-27T20:46:51.711Z,46.43
2023-02-27T20:49:18.808Z,46.26
2023-02-27T20:51:45.766Z,46.30
2023-02-27T20:54:16.691Z,46.64
2023-02-27T20:56:43.985Z,46.94
2023-02-27T20:59:14.438Z,46.83
2023-02-27T21:01:51.324Z,47.20
2023-02-27T21:04:42.192Z,47.34
2023-02-27T21:07:11.110Z,47.33
2023-02-27T21:09:38.045Z,47.70
2023-02-27T21:12:06.592Z,47.72
2023-02-27T21:14:33.817Z,47.80
2023-02-27T21:17:00.936Z,47.90
2023-02-27T21:19:27.640Z,47.88
2023-02-27T21:21:54.328Z,47.78
2023-02-27T21:24:21.584Z,47.94
2023-02-27T21:26:49.548Z,48.10
2023-02-27T21:29:19.651Z,48.00
2023-02-27T21:31:49.114Z,47.95
2023-02-27T21:34:20.608Z,47.98
2023-02-27T21:36:47.433Z,47.91
2023-02-27T21:39:18.877Z,47.96
2023-02-27T21:41:46.014Z,48.10
2023-02-27T21:44:15.849Z,48.26
2023-02-27T21:46:43.000Z,48.31
2023-02-27T21:49:16.885Z,48.51
2023-02-27T21:51:43.779Z,48.39
2023-02-27T21:54:12.749Z,48.39
2023-02-27T21:56:41.670Z,48.17
2023-02-27T21:59:09.328Z,48.22
2023-02-27T22:01:37.118Z,48.37
2023-02-27T22:04:04.364Z,48.48
2023-02-27T22:06:33.051Z,48.12
2023-02-27T22:09:02.939Z,48.22
2023-02-27T22:11:30.003Z,47.97
2023-02-27T22:13:57.208Z,48.05
2023-02-27T22:16:24.421Z,47.80
2023-02-27T22:18:51.877Z,47.80
2023-02-27T22:21:22.821Z,47.47
2023-02-27T22:23:50.226Z,47.02
2023-02-27T22:26:24.314Z,47.28
2023-02-27T22:28:52.415Z,46.99
2023-02-27T22:31:21.646Z,46.82
2023-02-27T22:33:51.272Z,46.41
2023-02-27T22:36:21.211Z,45.74
2023-02-27T22:38:48.759Z,46.02
2023-02-27T22:41:18.802Z,45.46
2023-02-27T22:43:46.495Z,45.02
2023-02-27T22:46:17.154Z,45.41
2023-02-27T22:48:43.942Z,44.70
2023-02-27T22:51:14.530Z,44.55
2023-02-27T22:53:46.136Z,44.92
2023-02-27T22:56:16.302Z,44.99
2023-02-27T22:58:44.934Z,44.87
2023-02-27T23:01:18.379Z,44.00
2023-02-27T23:03:47.114Z,44.70
2023-02-27T23:06:23.159Z,44.39
2023-02-27T23:08:50.008Z,44.63
2023-02-27T23:11:18.745Z,43.84
2023-02-27T23:13:45.372Z,43.92
2023-02-27T23:16:13.761Z,44.20
2023-02-27T23:18:46.304Z,43.81
2023-02-27T23:21:15.400Z,43.91
2023-02-27T23:23:42.113Z,43.78
2023-02-27T23:26:08.992Z,43.63
2023-02-27T23:28:36.846Z,43.82
2023-02-27T23:31:05.696Z,43.49
2023-02-27T23:33:33.050Z,43.45
2023-02-27T23:36:01.153Z,43.57
2023-02-27T23:38:28.517Z,43.54
2023-02-27T23:40:55.477Z,43.48
2023-02-27T23:43:41.855Z,43.86
2023-02-27T23:46:10.697Z,43.94
2023-02-27T23:48:38.035Z,43.65
2023-02-27T23:51:06.133Z,43.83
2023-02-27T23:53:34.263Z,43.63
2023-02-27T23:56:01.493Z,43.54
2023-02-27T23:58:28.210Z,43.58
